GUY - Guymon Muni

Pirep is a free, collaborative database of all public and private airports located within the United States. All pilots are welcome to contribute, edit, and improve any airport they have local knowledge about, no registration required.
Are you familiar with this airport? Help out other pilots by adding your local knowledge.
Uploaded photos will be licensed under a CC BY-SA 4.0 license. Please only upload photos you have the rights to use.
Tags
Public
Undocu­mented
METAR / TAF
Edit Tags
Food
Camping
Lodging
Car Rental
Bicycles
Swimming
Golfing
Fishing
Hot Springs
Museum
Flying Clubs
Airpark
Upcoming Events
No upcoming events. Is anything happening here soon?
*
*
*

Where exactly on/near the airport is this event taking place?

Is there a webpage with more information for this event?

Who should be contacted for more information?

What is this event all about?

Repeat every
Description
Transient Parking
Fuel Location
Landing & Tie-down Fees
Crew Car Availability
Flying Clubs
WiFi Access
Airport Statistics
Location: Guymon, OK
Elevation: 3,125ft
Sectional: Wichita
Activation date: May 1949
Fuel: 100LL, A (prices)
Runway 18/36: 5,904ft
Runway 06/24: 1,795ft
Access: Open to the public
Current Weather — VFR
  • Weather data is strictly informational and not for flight planning purposes.
  • METAR
    2024-06-17 07:53:00 CDT
    Ceiling Wind Temperature Dewpoint Weather Visbility
    Sky clear 180° @ 10kt, gusts 22kt 73°F 66°F N/A 10SM
    Raw: KGUY 171253Z AUTO 18010G22KT 10SM CLR 23/19 A2975 RMK AO2 SLP017 T02330194
  • TAF
    2024-06-17 07:00:00 CDT – 2024-06-17 11:00:00 CDT
    Ceiling Wind Weather Visbility
    Sky clear 180° @ 15kt, gusts 25kt N/A 6SM
    Clouds: Scattered @ 25,000ft
    Raw: KGUY 171125Z 1712/1812 18015G25KT P6SM SCT250 FM171600 18022G36KT P6SM SKC FM172000 17025G41KT P6SM FEW250 FM180600 19020G35KT P6SM FEW250
  • TAF
    2024-06-17 11:00:00 CDT – 2024-06-17 15:00:00 CDT
    Ceiling Wind Weather Visbility
    Sky clear 180° @ 22kt, gusts 36kt N/A 6SM
    Clouds: @ ft
    Raw: KGUY 171125Z 1712/1812 18015G25KT P6SM SCT250 FM171600 18022G36KT P6SM SKC FM172000 17025G41KT P6SM FEW250 FM180600 19020G35KT P6SM FEW250
  • TAF
    2024-06-17 15:00:00 CDT – 2024-06-18 01:00:00 CDT
    Ceiling Wind Weather Visbility
    Sky clear 170° @ 25kt, gusts 41kt N/A 6SM
    Clouds: Few @ 25,000ft
    Raw: KGUY 171125Z 1712/1812 18015G25KT P6SM SCT250 FM171600 18022G36KT P6SM SKC FM172000 17025G41KT P6SM FEW250 FM180600 19020G35KT P6SM FEW250
  • TAF
    2024-06-18 01:00:00 CDT – 2024-06-18 07:00:00 CDT
    Ceiling Wind Weather Visbility
    Sky clear 190° @ 20kt, gusts 35kt N/A 6SM
    Clouds: Few @ 25,000ft
    Raw: KGUY 171125Z 1712/1812 18015G25KT P6SM SCT250 FM171600 18022G36KT P6SM SKC FM172000 17025G41KT P6SM FEW250 FM180600 19020G35KT P6SM FEW250
Click/tap to add an annotation marker to the map
Airport Webcams
No webcams added yet.
Direct links to live image URLs will be displayed inline on this page. URLs to separate webpages will be linked to.
URL:
Direct links to live image URLs will be displayed inline on this page. URLs to separate webpages will be linked to.
URL:
Remarks
  • Arpt courtesy car avbl.
  • Numerous waterfowl invof arpt sr & ss.
  • For cd ctc kansas city artcc at 913-254-8508.
  • Actvt odals rwy 18; vasi rwy 18; papi rwy 36; mirl rwy 18/36 - ctaf. mirl rwy 18/36 preset low intst, incr intst - ctaf.
  • For attendant aft hrs call 580-338-0481/7700.
  • Rwy 06 dep na.
  • Edges marked w/ raised wooden mrkrs.
Comments
Leave a comment What was your experience like at this airport?